• Join FlightAware (Why Join?)
  • Login
  • US Flag 
03:41PM EDT


 

Airport Tracker/Info


-or-


 

Live Flight TrackerFlight Track Log ✈ N703RM ✈ 20-Oct-2013 ✈ KRDU - KHEF

Flight Track Log - Related Links

Times and Time Zones

All times are in EDT time to prevent confusion due to time zone crossing. See the N703RM flight status page for this flight to view local times or setup timezone preferences in your user account.

Time Position Orientation Groundspeed Altitude Reporting Facility
EDT Latitude Longitude Course Direction KTS MPH feet Rate Location/Type
04:06PM 35.8864 -78.7711 38° Northeast 169 194 1,200  Level Washington Center
04:07PM 35.9014 -78.7564 38° Northeast 175 201 1,700 960 Climbing Washington Center
04:08PM 35.9619 -78.7561 360° North 207 238 2,700 960 Climbing Washington Center
04:09PM 36.0144 -78.7456 North 202 232 3,700 960 Climbing Washington Center
04:10PM 36.0692 -78.7269 15° North 200 230 4,700 600 Climbing Washington Center
04:11PM 36.1303 -78.7036 17° North 215 247 5,000 420 Climbing Washington Center
04:12PM 36.1956 -78.6781 18° North 234 269 5,700 840 Climbing Washington Center
04:13PM 36.2631 -78.6497 19° North 213 245 7,000 960 Climbing Washington Center
04:14PM 36.3200 -78.6289 16° North 208 239 7,900 960 Climbing Washington Center
04:15PM 36.3769 -78.6078 17° North 208 239 9,000 960 Climbing Washington Center
04:16PM 36.4336 -78.5867 17° North 208 239 9,800 900 Climbing Washington Center
04:17PM 36.4947 -78.5633 17° North 214 246 10,800 960 Climbing Washington Center
04:18PM 36.5536 -78.5447 14° North 219 252 11,800 960 Climbing Washington Center
04:19PM 36.6153 -78.5031 28° Northeast 229 264 12,800 960 Climbing Washington Center
04:20PM 36.6725 -78.4611 30° Northeast 235 270 13,800 960 Climbing Washington Center
04:21PM 36.7364 -78.4117 32° Northeast 247 284 14,800 540 Climbing Washington Center
04:22PM 36.7978 -78.3700 29° Northeast 259 298 15,000 60 Climbing Washington Center
04:23PM 36.8678 -78.3153 32° Northeast 278 320 15,000  Level Washington Center
04:24PM 36.9378 -78.2633 31° Northeast 288 331 15,000  Level Washington Center
04:25PM 37.0206 -78.2036 30° Northeast 300 345 15,000  Level Washington Center
04:26PM 37.0842 -78.1564 31° Northeast 300 345 15,000  Level Washington Center
04:27PM 37.1583 -78.1042 29° Northeast 294 338 15,000  Level Washington Center
04:28PM 37.2303 -78.0492 31° Northeast 299 344 15,000  Level Washington Center
04:29PM 37.3044 -77.9967 29° Northeast 299 344 15,000  Level Washington Center
04:30PM 37.3744 -77.9414 32° Northeast 299 344 15,000  Level Washington Center
04:31PM 37.4464 -77.8886 30° Northeast 299 344 15,000  Level Washington Center
04:32PM 37.5203 -77.8358 30° Northeast 299 344 15,000 -60 Level Washington Center
04:33PM 37.5942 -77.7883 27° Northeast 299 344 14,900 -600 Descending Washington Center
04:34PM 37.6722 -77.7433 25° Northeast 294 338 13,800 -1,080 Descending Washington Center
04:35PM 37.7503 -77.6956 26° Northeast 300 345 12,800 -1,020 Descending Washington Center
04:36PM 37.8303 -77.6506 24° Northeast 305 351 11,800 -1,020 Descending Washington Center
04:37PM 37.9061 -77.6078 24° Northeast 305 351 10,800 -1,020 Descending Washington Center
04:38PM 37.9819 -77.5625 25° Northeast 305 351 9,800 -1,080 Descending Washington Center
04:39PM 38.0636 -77.5408 12° North 288 331 8,700 -960 Descending Washington Center
04:40PM 38.1339 -77.5689 343° North 266 306 8,000 -360 Descending Washington Center
04:41PM 38.1961 -77.5944 342° North 251 289 8,000  Level Washington Center
04:42PM 38.2583 -77.6225 341° North 240 276 8,000 -540 Level Washington Center
04:43PM 38.3292 -77.6269 357° North 235 270 7,000 -1,140 Descending Washington Center
04:44PM 38.3956 -77.6369 353° North 241 277 5,800 -1,260 Descending Washington Center
04:45PM 38.4664 -77.6414 357° North 241 277 4,500 -1,260 Descending Washington Center
04:47PM 38.6000 -77.6000 14° North 210 242 2,000 -840 Descending Potomac TRACON
04:48PM 38.6333 -77.5667 38° Northeast 196 226 2,000 -360 Level Potomac TRACON
04:49PM 38.6667 -77.5167 49° Northeast 162 186 1,400 -720 Descending Potomac TRACON
04:50PM 38.7000 -77.5000 21° North 124 143 600 -780 Descending Potomac TRACON
04:52PM 38.7167 -77.5000 330° Northwest  Level FlightAware Approximate
04:59PM 38.7210 -77.5151 330° Northwest  Level Estimated